createdAt,value
2023-02-19T00:01:25.889Z,5.95
2023-02-19T00:04:07.649Z,6.01
2023-02-19T00:06:34.695Z,6.06
2023-02-19T00:09:01.854Z,5.73
2023-02-19T00:11:31.145Z,5.77
2023-02-19T00:13:59.350Z,5.76
2023-02-19T00:16:32.065Z,5.59
2023-02-19T00:19:01.227Z,5.43
2023-02-19T00:21:28.039Z,5.40
2023-02-19T00:23:57.252Z,5.42
2023-02-19T00:26:24.238Z,5.40
2023-02-19T00:28:52.397Z,5.41
2023-02-19T00:31:22.096Z,5.43
2023-02-19T00:33:51.802Z,5.36
2023-02-19T00:36:18.898Z,5.36
2023-02-19T00:38:46.221Z,5.20
2023-02-19T00:41:20.188Z,5.11
2023-02-19T00:43:49.048Z,5.02
2023-02-19T00:46:21.876Z,4.99
2023-02-19T00:48:48.722Z,5.13
2023-02-19T00:51:16.105Z,5.14
2023-02-19T00:53:43.091Z,5.14
2023-02-19T00:56:10.117Z,5.09
2023-02-19T00:58:37.237Z,5.02
2023-02-19T01:01:05.603Z,5.09
2023-02-19T01:03:33.445Z,5.10
2023-02-19T01:06:00.532Z,5.14
2023-02-19T01:08:27.969Z,4.84
2023-02-19T01:10:54.793Z,4.79
2023-02-19T01:13:21.540Z,4.90
2023-02-19T01:15:48.299Z,5.04
2023-02-19T01:18:15.140Z,5.22
2023-02-19T01:20:43.674Z,5.36
2023-02-19T01:23:12.052Z,5.39
2023-02-19T01:25:42.601Z,5.42
2023-02-19T01:28:10.715Z,5.48
2023-02-19T01:30:39.390Z,5.57
2023-02-19T01:33:07.513Z,5.64
2023-02-19T01:35:34.967Z,5.67
2023-02-19T01:38:01.701Z,5.62
2023-02-19T01:40:28.614Z,5.72
2023-02-19T01:42:55.389Z,5.80
2023-02-19T01:45:22.252Z,5.81
2023-02-19T01:47:55.363Z,5.77
2023-02-19T01:50:23.057Z,5.79
2023-02-19T01:52:49.723Z,5.89
2023-02-19T01:55:17.993Z,5.92
2023-02-19T01:57:47.105Z,5.90
2023-02-19T02:00:17.596Z,5.91
2023-02-19T02:02:49.826Z,5.90
2023-02-19T02:06:06.172Z,5.89
2023-02-19T02:09:00.173Z,5.89
2023-02-19T02:11:27.718Z,5.95
2023-02-19T02:13:54.655Z,5.94
2023-02-19T02:16:34.195Z,6.08
2023-02-19T02:19:06.898Z,6.27
2023-02-19T02:21:49.751Z,6.28
2023-02-19T02:24:34.738Z,6.25
2023-02-19T02:27:04.696Z,6.19
2023-02-19T02:30:09.627Z,6.23
2023-02-19T02:33:18.153Z,6.23
2023-02-19T02:35:49.371Z,6.27
2023-02-19T02:38:18.759Z,6.24
2023-02-19T02:40:45.759Z,6.21
2023-02-19T02:43:13.933Z,6.08
2023-02-19T02:45:41.196Z,6.08
2023-02-19T02:48:33.704Z,5.86
2023-02-19T02:51:19.917Z,5.76
2023-02-19T02:54:19.049Z,5.62
2023-02-19T02:56:47.085Z,5.43
2023-02-19T02:59:22.108Z,5.34
2023-02-19T03:02:12.703Z,5.28
2023-02-19T03:04:59.481Z,5.30
2023-02-19T03:07:29.942Z,5.28
2023-02-19T03:09:58.639Z,5.31
2023-02-19T03:12:44.466Z,5.13
2023-02-19T03:15:31.860Z,5.01
2023-02-19T03:18:22.854Z,4.85
2023-02-19T03:20:52.328Z,4.86
2023-02-19T03:23:21.279Z,4.88
2023-02-19T03:26:03.433Z,4.83
2023-02-19T03:28:59.691Z,4.72
2023-02-19T03:31:27.873Z,4.50
2023-02-19T03:34:01.483Z,4.42
2023-02-19T03:36:37.733Z,4.29
2023-02-19T03:39:07.342Z,4.30
2023-02-19T03:41:41.274Z,4.23
2023-02-19T03:44:18.215Z,4.21
2023-02-19T03:46:58.739Z,4.22
2023-02-19T03:49:29.621Z,4.28
2023-02-19T03:52:05.603Z,4.27
2023-02-19T03:54:38.347Z,4.18
2023-02-19T03:57:07.661Z,4.13
2023-02-19T03:59:47.253Z,4.17
2023-02-19T04:02:18.406Z,4.19
2023-02-19T04:04:56.940Z,4.20
2023-02-19T04:07:24.138Z,4.32
2023-02-19T04:09:52.515Z,4.45
2023-02-19T04:12:21.299Z,4.50
2023-02-19T04:15:01.659Z,4.33
2023-02-19T04:17:37.133Z,4.13
2023-02-19T04:20:05.659Z,4.15
2023-02-19T04:22:32.634Z,3.94
2023-02-19T04:24:59.437Z,3.87
2023-02-19T04:27:26.259Z,3.85
2023-02-19T04:29:53.171Z,3.83
2023-02-19T04:32:19.887Z,3.77
2023-02-19T04:34:46.632Z,3.87
2023-02-19T04:37:13.613Z,4.01
2023-02-19T04:39:40.363Z,4.05
2023-02-19T04:42:07.135Z,4.10
2023-02-19T04:44:34.625Z,4.17
2023-02-19T04:47:01.634Z,4.25
2023-02-19T04:49:28.429Z,4.32
2023-02-19T04:51:55.302Z,4.38
2023-02-19T04:54:22.048Z,4.42
2023-02-19T04:56:50.752Z,4.48
2023-02-19T04:59:17.793Z,4.48
2023-02-19T05:01:44.628Z,4.55
2023-02-19T05:04:11.587Z,4.56
2023-02-19T05:06:38.393Z,4.76
2023-02-19T05:09:05.161Z,4.86
2023-02-19T05:11:32.052Z,4.85
2023-02-19T05:13:58.805Z,4.94
2023-02-19T05:16:25.558Z,5.17
2023-02-19T05:18:52.437Z,5.48
2023-02-19T05:21:19.217Z,5.87
2023-02-19T05:23:45.994Z,6.46
2023-02-19T05:26:18.955Z,7.17
2023-02-19T05:28:46.856Z,7.59
2023-02-19T05:31:14.885Z,7.99
2023-02-19T05:33:43.155Z,8.39
2023-02-19T05:36:14.085Z,8.58
2023-02-19T05:38:41.188Z,8.77
2023-02-19T05:41:20.508Z,9.00
2023-02-19T05:43:48.462Z,9.13
2023-02-19T05:46:17.725Z,9.26
2023-02-19T05:48:44.592Z,9.39
2023-02-19T05:51:16.490Z,9.47
2023-02-19T05:53:45.296Z,9.51
2023-02-19T05:56:24.284Z,9.54
2023-02-19T05:58:51.233Z,9.62
2023-02-19T06:01:19.427Z,9.73
2023-02-19T06:03:46.285Z,9.75
2023-02-19T06:06:17.895Z,9.75
2023-02-19T06:08:44.819Z,9.71
2023-02-19T06:11:11.941Z,9.65
2023-02-19T06:13:38.886Z,9.65
2023-02-19T06:16:07.181Z,9.70
2023-02-19T06:18:34.290Z,9.64
2023-02-19T06:21:05.666Z,9.65
2023-02-19T06:23:32.921Z,9.58
2023-02-19T06:26:11.725Z,9.64
2023-02-19T06:28:39.300Z,9.75
2023-02-19T06:31:07.675Z,9.75
2023-02-19T06:33:35.420Z,9.81
2023-02-19T06:36:03.854Z,9.75
2023-02-19T06:38:31.296Z,9.76
2023-02-19T06:41:02.793Z,9.81
2023-02-19T06:43:30.173Z,9.84
2023-02-19T06:46:01.054Z,9.87
2023-02-19T06:48:29.672Z,9.93
2023-02-19T06:50:56.879Z,10.01
2023-02-19T06:53:23.753Z,10.06
2023-02-19T06:56:08.072Z,10.16
2023-02-19T06:58:35.131Z,10.26
2023-02-19T07:01:02.032Z,10.29
2023-02-19T07:03:28.828Z,10.38
2023-02-19T07:05:55.600Z,10.50
2023-02-19T07:08:22.456Z,10.61
2023-02-19T07:10:56.943Z,10.70
2023-02-19T07:13:25.068Z,10.79
2023-02-19T07:15:52.256Z,10.93
2023-02-19T07:18:19.262Z,11.05
2023-02-19T07:20:46.090Z,11.16
2023-02-19T07:23:12.894Z,11.21
2023-02-19T07:25:39.892Z,11.38
2023-02-19T07:28:07.438Z,11.43
2023-02-19T07:30:34.682Z,11.55
2023-02-19T07:33:01.659Z,11.72
2023-02-19T07:35:28.538Z,11.87
2023-02-19T07:37:55.436Z,11.98
2023-02-19T07:40:22.196Z,12.18
2023-02-19T07:42:48.968Z,12.36
2023-02-19T07:45:16.896Z,12.57
2023-02-19T07:47:43.652Z,12.71
2023-02-19T07:50:12.393Z,12.84
2023-02-19T07:52:40.570Z,13.09
2023-02-19T07:55:07.397Z,13.23
2023-02-19T07:57:34.159Z,13.48
2023-02-19T08:00:01.084Z,13.64
2023-02-19T08:02:46.385Z,13.86
2023-02-19T08:05:13.916Z,14.02
2023-02-19T08:07:40.801Z,14.22
2023-02-19T08:10:26.667Z,14.37
2023-02-19T08:13:19.077Z,14.43
2023-02-19T08:15:50.688Z,14.71
2023-02-19T08:18:19.416Z,14.91
2023-02-19T08:20:46.171Z,15.15
2023-02-19T08:23:13.537Z,15.32
2023-02-19T08:25:40.949Z,15.47
2023-02-19T08:28:10.323Z,15.48
2023-02-19T08:30:39.186Z,15.72
2023-02-19T08:33:07.356Z,15.79
2023-02-19T08:35:37.163Z,15.99
2023-02-19T08:38:05.590Z,15.92
2023-02-19T08:40:33.229Z,16.12
2023-02-19T08:43:08.444Z,16.50
2023-02-19T08:45:37.483Z,16.54
2023-02-19T08:48:04.565Z,16.55
2023-02-19T08:50:31.439Z,16.74
2023-02-19T08:53:02.532Z,17.28
2023-02-19T08:55:29.763Z,17.46
2023-02-19T08:57:56.787Z,17.26
2023-02-19T09:00:23.813Z,17.58
2023-02-19T09:02:50.806Z,17.59
2023-02-19T09:05:17.794Z,17.51
2023-02-19T09:07:44.446Z,17.93
2023-02-19T09:10:12.593Z,18.30
2023-02-19T09:12:40.297Z,18.54
2023-02-19T09:15:07.452Z,18.68
2023-02-19T09:17:34.144Z,18.62
2023-02-19T09:20:00.901Z,18.69
2023-02-19T09:22:27.769Z,18.80
2023-02-19T09:24:54.525Z,18.74
2023-02-19T09:27:21.287Z,18.75
2023-02-19T09:29:48.132Z,18.99
2023-02-19T09:32:14.912Z,19.21
2023-02-19T09:34:41.831Z,19.06
2023-02-19T09:37:08.810Z,19.24
2023-02-19T09:39:35.592Z,19.47
2023-02-19T09:42:15.434Z,19.58
2023-02-19T09:44:44.845Z,19.24
2023-02-19T09:47:20.085Z,19.37
2023-02-19T09:49:52.269Z,19.78
2023-02-19T09:52:24.143Z,20.06
2023-02-19T09:54:51.907Z,20.16
2023-02-19T09:57:19.964Z,20.30
2023-02-19T09:59:50.603Z,20.44
2023-02-19T10:02:20.156Z,20.94
2023-02-19T10:04:51.417Z,21.22
2023-02-19T10:07:20.882Z,21.34
2023-02-19T10:10:18.904Z,21.57
2023-02-19T10:12:51.375Z,21.85
2023-02-19T10:15:22.955Z,22.13
2023-02-19T10:17:49.674Z,22.43
2023-02-19T10:20:18.866Z,22.41
2023-02-19T10:22:45.911Z,22.67
2023-02-19T10:25:14.616Z,22.84
2023-02-19T10:27:41.356Z,22.95
2023-02-19T10:30:16.996Z,23.07
2023-02-19T10:32:58.954Z,23.22
2023-02-19T10:35:25.951Z,23.30
2023-02-19T10:37:53.105Z,23.32
2023-02-19T10:40:22.866Z,23.55
2023-02-19T10:42:59.069Z,23.59
2023-02-19T10:45:39.906Z,23.53
2023-02-19T10:48:07.792Z,23.78
2023-02-19T10:50:46.978Z,23.94
2023-02-19T10:53:24.514Z,23.94
2023-02-19T10:56:27.556Z,24.04
2023-02-19T10:58:55.227Z,24.13
2023-02-19T11:01:25.677Z,23.99
2023-02-19T11:04:17.376Z,23.92
2023-02-19T11:06:45.187Z,23.94
2023-02-19T11:09:23.913Z,24.01
2023-02-19T11:11:52.495Z,24.23
2023-02-19T11:14:21.640Z,24.69
2023-02-19T11:16:52.137Z,24.83
2023-02-19T11:19:43.972Z,25.15
2023-02-19T11:22:38.903Z,25.17
2023-02-19T11:25:14.701Z,24.57
2023-02-19T11:28:16.832Z,23.48
2023-02-19T11:30:47.633Z,23.61
2023-02-19T11:33:17.441Z,24.42
2023-02-19T11:35:45.011Z,24.73
2023-02-19T11:38:14.110Z,25.33
2023-02-19T11:40:44.959Z,25.83
2023-02-19T11:43:20.902Z,26.01
2023-02-19T11:46:23.184Z,26.55
2023-02-19T11:48:54.968Z,26.81
2023-02-19T11:51:39.643Z,27.22
2023-02-19T11:54:09.376Z,27.56
2023-02-19T11:56:41.075Z,27.90
2023-02-19T11:59:17.373Z,27.72
2023-02-19T12:02:02.603Z,27.44
2023-02-19T12:04:44.670Z,27.67
2023-02-19T12:07:17.652Z,27.70
2023-02-19T12:10:03.076Z,27.08
2023-02-19T12:12:54.605Z,26.04
2023-02-19T12:15:24.354Z,24.76
2023-02-19T12:18:15.112Z,24.55
2023-02-19T12:21:23.179Z,24.85
2023-02-19T12:24:27.822Z,24.73
2023-02-19T12:27:51.831Z,24.90
2023-02-19T12:30:40.139Z,25.20
2023-02-19T12:33:34.407Z,25.25
2023-02-19T12:36:33.598Z,25.22
2023-02-19T12:39:38.142Z,25.19
2023-02-19T12:42:43.351Z,25.04
2023-02-19T12:45:32.392Z,25.03
2023-02-19T12:48:12.829Z,24.84
2023-02-19T12:50:39.846Z,24.69
2023-02-19T12:53:34.199Z,24.93
2023-02-19T12:56:05.727Z,24.63
2023-02-19T12:58:38.113Z,24.68
2023-02-19T13:01:07.447Z,24.89
2023-02-19T13:04:12.537Z,25.14
2023-02-19T13:06:50.575Z,25.29
2023-02-19T13:09:51.145Z,25.50
2023-02-19T13:12:29.705Z,25.64
2023-02-19T13:15:15.097Z,25.79
2023-02-19T13:17:46.218Z,25.92
2023-02-19T13:20:27.472Z,25.90
2023-02-19T13:23:19.235Z,25.95
2023-02-19T13:25:46.023Z,25.91
2023-02-19T13:28:21.518Z,25.93
2023-02-19T13:30:57.698Z,25.92
2023-02-19T13:33:32.648Z,26.05
2023-02-19T13:36:31.726Z,26.09
2023-02-19T13:38:59.659Z,26.22
2023-02-19T13:41:30.284Z,26.33
2023-02-19T13:44:00.960Z,26.45
2023-02-19T13:46:38.396Z,26.53
2023-02-19T13:49:24.057Z,26.36
2023-02-19T13:51:52.170Z,26.13
2023-02-19T13:54:40.246Z,25.66
2023-02-19T13:57:26.661Z,25.27
2023-02-19T13:59:54.857Z,25.10
2023-02-19T14:02:21.546Z,24.62
2023-02-19T14:04:57.147Z,24.25
2023-02-19T14:07:26.936Z,23.82
2023-02-19T14:09:54.323Z,23.72
2023-02-19T14:12:22.926Z,24.05
2023-02-19T14:14:51.625Z,24.17
2023-02-19T14:17:43.745Z,24.13
2023-02-19T14:20:11.729Z,23.78
2023-02-19T14:22:47.652Z,23.85
2023-02-19T14:25:43.344Z,24.06
2023-02-19T14:28:10.121Z,24.22
2023-02-19T14:30:49.069Z,24.42
2023-02-19T14:33:17.911Z,24.28
2023-02-19T14:35:46.938Z,24.07
2023-02-19T14:38:30.580Z,24.01
2023-02-19T14:40:57.562Z,23.97
2023-02-19T14:43:25.838Z,23.60
2023-02-19T14:46:00.523Z,23.27
2023-02-19T14:48:48.253Z,22.72
2023-02-19T14:51:40.864Z,22.23
2023-02-19T14:54:27.823Z,22.07
2023-02-19T14:56:54.888Z,21.95
2023-02-19T14:59:24.611Z,21.93
2023-02-19T15:02:12.885Z,21.87
2023-02-19T15:04:40.325Z,21.65
2023-02-19T15:07:09.616Z,21.15
2023-02-19T15:09:40.282Z,20.63
2023-02-19T15:12:07.635Z,19.86
2023-02-19T15:14:34.993Z,19.12
2023-02-19T15:17:04.257Z,18.83
2023-02-19T15:19:35.055Z,18.72
2023-02-19T15:22:02.738Z,18.50
2023-02-19T15:24:30.117Z,18.39
2023-02-19T15:26:56.942Z,18.22
2023-02-19T15:29:25.918Z,18.28
2023-02-19T15:32:00.923Z,18.05
2023-02-19T15:34:30.622Z,18.00
2023-02-19T15:37:08.384Z,17.71
2023-02-19T15:39:36.078Z,17.48
2023-02-19T15:42:05.161Z,17.59
2023-02-19T15:44:44.614Z,17.53
2023-02-19T15:47:25.484Z,17.45
2023-02-19T15:49:54.014Z,17.42
2023-02-19T15:52:27.774Z,17.41
2023-02-19T15:55:20.774Z,17.39
2023-02-19T15:58:00.710Z,17.25
2023-02-19T16:00:50.625Z,17.12
2023-02-19T16:03:22.400Z,17.00
2023-02-19T16:06:02.792Z,16.79
2023-02-19T16:08:31.189Z,16.52
2023-02-19T16:11:00.402Z,16.23
2023-02-19T16:13:29.124Z,16.10
2023-02-19T16:16:15.224Z,16.02
2023-02-19T16:18:47.351Z,15.88
2023-02-19T16:21:16.334Z,15.85
2023-02-19T16:23:44.170Z,15.66
2023-02-19T16:26:11.335Z,15.48
2023-02-19T16:28:39.764Z,15.13
2023-02-19T16:31:13.769Z,15.05
2023-02-19T16:33:48.733Z,14.98
2023-02-19T16:36:41.626Z,14.87
2023-02-19T16:39:08.493Z,14.78
2023-02-19T16:41:41.365Z,14.62
2023-02-19T16:44:32.542Z,14.41
2023-02-19T16:47:15.981Z,14.23
2023-02-19T16:49:44.170Z,13.98
2023-02-19T16:52:15.494Z,13.73
2023-02-19T16:54:43.305Z,13.61
2023-02-19T16:57:10.032Z,13.51
2023-02-19T16:59:37.004Z,13.34
2023-02-19T17:02:05.672Z,13.27
2023-02-19T17:04:32.462Z,13.26
2023-02-19T17:06:59.278Z,13.20
2023-02-19T17:09:26.052Z,13.05
2023-02-19T17:11:52.816Z,12.95
2023-02-19T17:14:19.649Z,12.75
2023-02-19T17:16:46.996Z,12.48
2023-02-19T17:19:16.890Z,12.26
2023-02-19T17:21:45.246Z,12.18
2023-02-19T17:24:12.309Z,11.95
2023-02-19T17:26:39.410Z,11.87
2023-02-19T17:29:08.576Z,11.94
2023-02-19T17:31:35.393Z,11.87
2023-02-19T17:34:02.198Z,11.85
2023-02-19T17:36:31.287Z,11.75
2023-02-19T17:38:59.513Z,11.50
2023-02-19T17:41:26.743Z,11.54
2023-02-19T17:43:53.652Z,11.43
2023-02-19T17:46:25.681Z,11.26
2023-02-19T17:48:53.177Z,11.25
2023-02-19T17:51:20.670Z,11.18
2023-02-19T17:53:47.493Z,11.21
2023-02-19T17:56:19.379Z,11.10
2023-02-19T17:58:46.162Z,11.05
2023-02-19T18:01:13.846Z,11.01
2023-02-19T18:03:40.892Z,10.98
2023-02-19T18:06:07.847Z,10.97
2023-02-19T18:08:34.648Z,10.99
2023-02-19T18:11:01.566Z,11.00
2023-02-19T18:13:28.314Z,10.86
2023-02-19T18:15:55.059Z,10.81
2023-02-19T18:18:23.309Z,10.75
2023-02-19T18:20:50.131Z,10.66
2023-02-19T18:23:16.935Z,10.57
2023-02-19T18:25:43.695Z,10.48
2023-02-19T18:28:10.930Z,10.38
2023-02-19T18:30:37.740Z,10.26
2023-02-19T18:33:05.486Z,10.22
2023-02-19T18:35:34.086Z,10.27
2023-02-19T18:38:01.735Z,10.29
2023-02-19T18:40:28.979Z,10.40
2023-02-19T18:42:55.908Z,10.51
2023-02-19T18:45:22.672Z,10.64
2023-02-19T18:47:50.018Z,10.80
2023-02-19T18:50:18.180Z,10.95
2023-02-19T18:52:45.003Z,11.11
2023-02-19T18:55:14.220Z,11.27
2023-02-19T18:57:41.113Z,11.43
2023-02-19T19:00:08.396Z,11.54
2023-02-19T19:02:48.332Z,11.59
2023-02-19T19:05:23.587Z,11.71
2023-02-19T19:07:52.702Z,11.83
2023-02-19T19:10:20.049Z,11.86
2023-02-19T19:12:47.071Z,11.90
2023-02-19T19:15:17.020Z,11.94
2023-02-19T19:17:44.892Z,12.00
2023-02-19T19:20:12.063Z,12.04
2023-02-19T19:22:38.846Z,12.07
2023-02-19T19:25:05.930Z,12.13
2023-02-19T19:27:32.686Z,12.22
2023-02-19T19:29:59.439Z,12.25
2023-02-19T19:32:26.270Z,12.21
2023-02-19T19:34:53.174Z,12.21
2023-02-19T19:37:19.917Z,12.22
2023-02-19T19:39:46.812Z,12.24
2023-02-19T19:42:14.063Z,12.29
2023-02-19T19:44:40.860Z,12.34
2023-02-19T19:47:07.685Z,12.40
2023-02-19T19:49:34.451Z,12.36
2023-02-19T19:52:01.333Z,12.33
2023-02-19T19:54:28.779Z,12.37
2023-02-19T19:56:55.775Z,12.41
2023-02-19T19:59:23.194Z,12.43
2023-02-19T20:01:52.625Z,12.44
2023-02-19T20:04:21.342Z,12.53
2023-02-19T20:06:48.733Z,12.54
2023-02-19T20:09:16.615Z,12.55
2023-02-19T20:11:48.025Z,12.57
2023-02-19T20:14:15.896Z,12.58
2023-02-19T20:16:44.697Z,12.58
2023-02-19T20:19:11.621Z,12.56
2023-02-19T20:21:38.645Z,12.57
2023-02-19T20:24:05.612Z,12.62
2023-02-19T20:26:32.694Z,12.62
2023-02-19T20:28:59.630Z,12.56
2023-02-19T20:31:26.764Z,12.61
2023-02-19T20:33:53.687Z,12.55
2023-02-19T20:36:20.808Z,12.53
2023-02-19T20:38:49.594Z,12.55
2023-02-19T20:41:16.417Z,12.55
2023-02-19T20:43:43.304Z,12.55
2023-02-19T20:46:13.977Z,12.49
2023-02-19T20:48:44.894Z,12.47
2023-02-19T20:51:11.829Z,12.46
2023-02-19T20:53:44.236Z,12.45
2023-02-19T20:56:12.090Z,12.43
2023-02-19T20:58:43.106Z,12.36
2023-02-19T21:01:11.837Z,12.33
2023-02-19T21:03:38.717Z,12.32
2023-02-19T21:06:05.722Z,12.32
2023-02-19T21:08:32.871Z,12.23
2023-02-19T21:10:59.918Z,12.21
2023-02-19T21:13:30.283Z,12.15
2023-02-19T21:15:57.545Z,12.02
2023-02-19T21:18:24.737Z,11.99
2023-02-19T21:20:51.684Z,11.95
2023-02-19T21:23:18.384Z,11.89
2023-02-19T21:25:45.167Z,11.86
2023-02-19T21:28:12.532Z,11.84
2023-02-19T21:30:39.601Z,11.80
2023-02-19T21:33:06.487Z,11.76
2023-02-19T21:35:33.410Z,11.78
2023-02-19T21:38:00.256Z,11.71
2023-02-19T21:40:29.004Z,11.69
2023-02-19T21:42:56.000Z,11.65
2023-02-19T21:45:22.867Z,11.56
2023-02-19T21:47:52.214Z,11.48
2023-02-19T21:50:22.590Z,11.47
2023-02-19T21:52:49.506Z,11.39
2023-02-19T21:55:16.499Z,11.31
2023-02-19T21:57:43.478Z,11.33
2023-02-19T22:00:10.771Z,11.31
2023-02-19T22:02:37.649Z,11.27
2023-02-19T22:05:04.703Z,11.28
2023-02-19T22:07:31.704Z,11.24
2023-02-19T22:09:58.558Z,11.24
2023-02-19T22:12:25.385Z,11.18
2023-02-19T22:14:52.911Z,11.15
2023-02-19T22:17:20.715Z,11.09
2023-02-19T22:19:47.496Z,11.11
2023-02-19T22:22:14.448Z,11.08
2023-02-19T22:24:41.224Z,11.05
2023-02-19T22:27:08.310Z,10.99
2023-02-19T22:29:35.173Z,10.98
2023-02-19T22:32:02.204Z,11.00
2023-02-19T22:34:29.017Z,10.91
2023-02-19T22:36:55.967Z,10.88
2023-02-19T22:39:26.868Z,10.86
2023-02-19T22:41:54.015Z,10.83
2023-02-19T22:44:20.977Z,10.73
2023-02-19T22:46:55.310Z,10.70
2023-02-19T22:49:22.745Z,10.69
2023-02-19T22:51:56.861Z,10.70
2023-02-19T22:54:26.885Z,10.62
2023-02-19T22:56:54.485Z,10.60
2023-02-19T22:59:21.994Z,10.58
2023-02-19T23:01:49.850Z,10.52
2023-02-19T23:04:16.995Z,10.45
2023-02-19T23:06:47.406Z,10.40
2023-02-19T23:09:21.595Z,10.38
2023-02-19T23:11:48.490Z,10.37
2023-02-19T23:14:21.566Z,10.29
2023-02-19T23:16:48.592Z,10.25
2023-02-19T23:19:15.998Z,10.24
2023-02-19T23:21:44.679Z,10.18
2023-02-19T23:24:12.825Z,10.15
2023-02-19T23:26:43.455Z,10.15
2023-02-19T23:29:10.401Z,10.12
2023-02-19T23:31:37.344Z,10.08
2023-02-19T23:34:04.359Z,10.10
2023-02-19T23:36:31.153Z,10.08
2023-02-19T23:38:57.870Z,10.02
2023-02-19T23:41:24.596Z,10.02
2023-02-19T23:43:52.410Z,10.02
2023-02-19T23:46:19.473Z,10.03
2023-02-19T23:48:46.466Z,10.02
2023-02-19T23:51:13.370Z,9.95
2023-02-19T23:53:40.174Z,9.91
2023-02-19T23:56:07.254Z,9.85
2023-02-19T23:58:34.083Z,9.88
